Saint Paul, MN (55108)

5:28 AM CST on February 08, 2016 (GMT -0600)
Falcon Heights | | Change Station
CLOSE
Current Station
Personal Weather Station
Location: Falcon Heights, MN
Elevation: 948 ft
Nearby Weather Stations
Active Advisory: Winter Weather Advisory

Elev 948 ft 45.00 °N, 93.16 °W | Updated 13 seconds ago

Overcast
Overcast
14.2 °F
Feels Like 14 °F
N
0.9
Wind Variable Wind from WNW
Gusts 11.0 mph

Today
High -- | Low -- °F
--% Chance of Precip.
Yesterday
High -- | Low -- °F
Precip. -- in
Pressure 29.86 in
Visibility 8.0 miles
Clouds Scattered Clouds 2800 ft
Mostly Cloudy 3400 ft
Overcast 4300 ft
Windchill 14 °F
Dew Point 8 °F
Humidity 76%
Rainfall 0.00 in
Snow Depth Not available.
7:24 AM 5:30 PM
Waning Crescent, 0% visible
METAR KSTP 081053Z AUTO 32021KT 8SM UP SCT028 BKN034 OVC043 M10/M14 A2983 RMK AO2 UPB07E29B40SNE07B26E28B29E40 SLP110 P0000 T11001144 $
Pressure 29.86 in
Visibility 8.0 miles
Clouds Scattered Clouds 2800 ft
Mostly Cloudy 3400 ft
Overcast 4300 ft
Windchill 14 °F
Dew Point 8 °F
Humidity 76%
Rainfall 0.00 in
Snow Depth Not available.
7:24 AM 5:30 PM
Waning Crescent, 0% visible
METAR KSTP 081053Z AUTO 32021KT 8SM UP SCT028 BKN034 OVC043 M10/M14 A2983 RMK AO2 UPB07E29B40SNE07B26E28B29E40 SLP110 P0000 T11001144 $

10-Day Weather Forecast

Almanac

Astronomy

Feb. 08, 2016 Rise Set
Actual Time
Civil Twilight
Nautical Twilight
Astronomical Twilight
Moon
Length of Visible Light
Length of Day
Tomorrow will be .
, % of the Moon is Illuminated

Today's Extremes

State Highs State Lows

Community

WunderPhotos

Upload Photos

1,891,420 photos uploaded!

WunderBlog® & News

Nearby

Air Quality

  Air Quality AQ Index Pollutant
Not available.

Snow Depth

Station Depth Elevation

Earthquake Activity

City Distance Mag. Time & Date
Minimum magnitude displayed is 2.5.

Coastal Water Temperatures

Place Temperature

Stations

Nearby Weather Stations

Station Location Temp. Windchill Dew Point Humidity Wind Precip. Elev Updated Type
                   

Watches & Warnings

Winter Weather Advisory
Issued: 3:47 AM CST Feb. 8, 2016 – National Weather Service

... Winter Weather Advisory remains in effect until noon CST
today...

* expect occasional light snow through noon.

* Additional snow accumulations of less than in inch expected.

* Winds gusting as high as 30 mph will cause areas of blowing
snow.

* Plan on reduced visibility at times and slippery Road
conditions.

Precautionary/preparedness actions...

A Winter Weather Advisory for snow means periods of snow will
cause primarily travel difficulties. Be prepared for snow covered
roads and limited visibilities... and use caution while driving.
The latest Road conditions for the state you are calling from can
be obtained by calling 5 1 1.


Jrb